sensor_id;sensor_type;location;lat;lon;timestamp;P1;durP1;ratioP1;P2;durP2;ratioP2
38427;SDS011;24211;49.980;19.776;2022-08-25T00:04:29;4.20;;;1.90;;
38427;SDS011;24211;49.980;19.776;2022-08-25T00:06:59;5.35;;;2.03;;
38427;SDS011;24211;49.980;19.776;2022-08-25T00:09:30;4.65;;;2.10;;
38427;SDS011;24211;49.980;19.776;2022-08-25T00:12:03;5.60;;;1.88;;
38427;SDS011;24211;49.980;19.776;2022-08-25T00:14:32;5.25;;;2.10;;
38427;SDS011;24211;49.980;19.776;2022-08-25T00:17:04;4.28;;;1.88;;
38427;SDS011;24211;49.980;19.776;2022-08-25T00:19:33;5.00;;;2.15;;
38427;SDS011;24211;49.980;19.776;2022-08-25T00:22:03;4.03;;;2.10;;
38427;SDS011;24211;49.980;19.776;2022-08-25T00:24:32;4.25;;;2.00;;
38427;SDS011;24211;49.980;19.776;2022-08-25T00:27:00;4.78;;;2.05;;
38427;SDS011;24211;49.980;19.776;2022-08-25T00:29:28;3.90;;;1.88;;
38427;SDS011;24211;49.980;19.776;2022-08-25T00:31:58;4.15;;;2.03;;
38427;SDS011;24211;49.980;19.776;2022-08-25T00:34:28;5.40;;;2.03;;
38427;SDS011;24211;49.980;19.776;2022-08-25T00:37:01;5.38;;;2.03;;
38427;SDS011;24211;49.980;19.776;2022-08-25T00:39:35;4.03;;;1.80;;
38427;SDS011;24211;49.980;19.776;2022-08-25T00:42:06;4.30;;;2.00;;
38427;SDS011;24211;49.980;19.776;2022-08-25T00:44:41;3.58;;;1.75;;
38427;SDS011;24211;49.980;19.776;2022-08-25T00:47:09;3.95;;;2.00;;
38427;SDS011;24211;49.980;19.776;2022-08-25T00:49:53;4.05;;;1.80;;
38427;SDS011;24211;49.980;19.776;2022-08-25T00:52:29;5.93;;;1.95;;
38427;SDS011;24211;49.980;19.776;2022-08-25T00:57:49;3.28;;;1.63;;
38427;SDS011;24211;49.980;19.776;2022-08-25T01:00:31;4.28;;;1.92;;
38427;SDS011;24211;49.980;19.776;2022-08-25T01:03:05;3.63;;;1.60;;
38427;SDS011;24211;49.980;19.776;2022-08-25T01:05:33;4.10;;;1.67;;
38427;SDS011;24211;49.980;19.776;2022-08-25T01:08:02;5.47;;;1.90;;
38427;SDS011;24211;49.980;19.776;2022-08-25T01:10:33;3.63;;;1.73;;
38427;SDS011;24211;49.980;19.776;2022-08-25T01:13:07;4.72;;;1.70;;
38427;SDS011;24211;49.980;19.776;2022-08-25T01:15:51;3.28;;;1.55;;
38427;SDS011;24211;49.980;19.776;2022-08-25T01:18:22;3.00;;;1.90;;
38427;SDS011;24211;49.980;19.776;2022-08-25T01:20:51;4.07;;;1.50;;
38427;SDS011;24211;49.980;19.776;2022-08-25T01:23:22;4.45;;;1.60;;
38427;SDS011;24211;49.980;19.776;2022-08-25T01:25:54;3.33;;;1.48;;
38427;SDS011;24211;49.980;19.776;2022-08-25T01:28:29;3.13;;;1.52;;
38427;SDS011;24211;49.980;19.776;2022-08-25T01:30:57;3.58;;;1.70;;
38427;SDS011;24211;49.980;19.776;2022-08-25T01:33:24;4.40;;;1.83;;
38427;SDS011;24211;49.980;19.776;2022-08-25T01:35:52;4.78;;;1.80;;
38427;SDS011;24211;49.980;19.776;2022-08-25T01:38:20;3.25;;;1.50;;
38427;SDS011;24211;49.980;19.776;2022-08-25T01:40:48;3.33;;;1.45;;
38427;SDS011;24211;49.980;19.776;2022-08-25T01:45:55;3.50;;;1.50;;
38427;SDS011;24211;49.980;19.776;2022-08-25T01:48:23;3.00;;;1.58;;
38427;SDS011;24211;49.980;19.776;2022-08-25T01:50:51;3.25;;;1.50;;
38427;SDS011;24211;49.980;19.776;2022-08-25T01:53:21;2.95;;;1.38;;
38427;SDS011;24211;49.980;19.776;2022-08-25T01:55:53;2.97;;;1.40;;
38427;SDS011;24211;49.980;19.776;2022-08-25T01:58:30;3.08;;;1.55;;
38427;SDS011;24211;49.980;19.776;2022-08-25T02:01:04;3.65;;;1.40;;
38427;SDS011;24211;49.980;19.776;2022-08-25T02:03:37;4.03;;;1.40;;
38427;SDS011;24211;49.980;19.776;2022-08-25T02:06:10;3.90;;;1.55;;
38427;SDS011;24211;49.980;19.776;2022-08-25T02:08:41;3.20;;;1.38;;
38427;SDS011;24211;49.980;19.776;2022-08-25T02:11:13;2.45;;;1.33;;
38427;SDS011;24211;49.980;19.776;2022-08-25T02:13:41;3.05;;;1.30;;
38427;SDS011;24211;49.980;19.776;2022-08-25T02:16:09;4.45;;;1.50;;
38427;SDS011;24211;49.980;19.776;2022-08-25T02:18:43;3.70;;;1.50;;
38427;SDS011;24211;49.980;19.776;2022-08-25T02:21:12;2.40;;;1.42;;
38427;SDS011;24211;49.980;19.776;2022-08-25T02:23:40;2.58;;;1.45;;
38427;SDS011;24211;49.980;19.776;2022-08-25T02:26:08;4.57;;;1.48;;
38427;SDS011;24211;49.980;19.776;2022-08-25T02:28:36;3.67;;;1.55;;
38427;SDS011;24211;49.980;19.776;2022-08-25T02:31:04;3.30;;;1.60;;
38427;SDS011;24211;49.980;19.776;2022-08-25T02:33:31;4.00;;;1.63;;
38427;SDS011;24211;49.980;19.776;2022-08-25T02:35:59;4.30;;;1.80;;
38427;SDS011;24211;49.980;19.776;2022-08-25T02:38:27;4.55;;;1.70;;
38427;SDS011;24211;49.980;19.776;2022-08-25T02:40:57;3.38;;;1.58;;
38427;SDS011;24211;49.980;19.776;2022-08-25T02:43:27;4.85;;;1.88;;
38427;SDS011;24211;49.980;19.776;2022-08-25T02:45:55;3.28;;;1.85;;
38427;SDS011;24211;49.980;19.776;2022-08-25T02:48:22;3.53;;;1.83;;
38427;SDS011;24211;49.980;19.776;2022-08-25T02:50:50;4.05;;;1.90;;
38427;SDS011;24211;49.980;19.776;2022-08-25T02:53:19;4.22;;;1.90;;
38427;SDS011;24211;49.980;19.776;2022-08-25T02:55:47;3.80;;;1.75;;
38427;SDS011;24211;49.980;19.776;2022-08-25T02:58:14;4.03;;;1.85;;
38427;SDS011;24211;49.980;19.776;2022-08-25T03:00:41;3.80;;;1.80;;
38427;SDS011;24211;49.980;19.776;2022-08-25T03:03:09;4.85;;;1.80;;
38427;SDS011;24211;49.980;19.776;2022-08-25T03:05:36;5.22;;;1.95;;
38427;SDS011;24211;49.980;19.776;2022-08-25T03:08:04;4.07;;;1.90;;
38427;SDS011;24211;49.980;19.776;2022-08-25T03:10:33;3.65;;;1.90;;
38427;SDS011;24211;49.980;19.776;2022-08-25T03:13:01;3.85;;;1.80;;
38427;SDS011;24211;49.980;19.776;2022-08-25T03:15:28;4.15;;;2.20;;
38427;SDS011;24211;49.980;19.776;2022-08-25T03:17:56;3.47;;;1.90;;
38427;SDS011;24211;49.980;19.776;2022-08-25T03:20:26;3.65;;;1.85;;
38427;SDS011;24211;49.980;19.776;2022-08-25T03:22:53;3.90;;;2.05;;
38427;SDS011;24211;49.980;19.776;2022-08-25T03:25:21;3.70;;;1.75;;
38427;SDS011;24211;49.980;19.776;2022-08-25T03:28:07;3.75;;;2.20;;
38427;SDS011;24211;49.980;19.776;2022-08-25T03:30:35;4.47;;;2.03;;
38427;SDS011;24211;49.980;19.776;2022-08-25T03:33:02;3.25;;;1.85;;
38427;SDS011;24211;49.980;19.776;2022-08-25T03:35:30;3.63;;;2.00;;
38427;SDS011;24211;49.980;19.776;2022-08-25T03:37:59;3.08;;;1.73;;
38427;SDS011;24211;49.980;19.776;2022-08-25T03:40:26;3.78;;;1.90;;
38427;SDS011;24211;49.980;19.776;2022-08-25T03:42:55;3.58;;;1.90;;
38427;SDS011;24211;49.980;19.776;2022-08-25T03:45:23;2.70;;;1.52;;
38427;SDS011;24211;49.980;19.776;2022-08-25T03:47:51;3.47;;;1.75;;
38427;SDS011;24211;49.980;19.776;2022-08-25T03:50:20;3.40;;;1.90;;
38427;SDS011;24211;49.980;19.776;2022-08-25T03:52:54;3.20;;;1.73;;
38427;SDS011;24211;49.980;19.776;2022-08-25T03:55:23;3.85;;;2.20;;
38427;SDS011;24211;49.980;19.776;2022-08-25T03:57:52;4.20;;;2.08;;
38427;SDS011;24211;49.980;19.776;2022-08-25T04:00:21;3.30;;;1.83;;
38427;SDS011;24211;49.980;19.776;2022-08-25T04:02:49;3.65;;;1.88;;
38427;SDS011;24211;49.980;19.776;2022-08-25T04:05:16;4.40;;;2.20;;
38427;SDS011;24211;49.980;19.776;2022-08-25T04:07:45;3.70;;;1.88;;
38427;SDS011;24211;49.980;19.776;2022-08-25T04:10:12;4.07;;;2.03;;
38427;SDS011;24211;49.980;19.776;2022-08-25T04:12:40;4.88;;;2.15;;
38427;SDS011;24211;49.980;19.776;2022-08-25T04:15:08;4.55;;;2.00;;
38427;SDS011;24211;49.980;19.776;2022-08-25T04:17:37;4.28;;;2.08;;
38427;SDS011;24211;49.980;19.776;2022-08-25T04:20:06;4.63;;;2.22;;
38427;SDS011;24211;49.980;19.776;2022-08-25T04:22:39;4.78;;;2.17;;
38427;SDS011;24211;49.980;19.776;2022-08-25T04:25:10;4.85;;;2.20;;
38427;SDS011;24211;49.980;19.776;2022-08-25T04:27:38;5.38;;;1.88;;
38427;SDS011;24211;49.980;19.776;2022-08-25T04:30:06;4.88;;;2.05;;
38427;SDS011;24211;49.980;19.776;2022-08-25T04:32:35;5.93;;;2.10;;
38427;SDS011;24211;49.980;19.776;2022-08-25T04:35:03;5.15;;;2.20;;
38427;SDS011;24211;49.980;19.776;2022-08-25T04:37:31;4.10;;;1.90;;
38427;SDS011;24211;49.980;19.776;2022-08-25T04:39:58;4.75;;;2.03;;
38427;SDS011;24211;49.980;19.776;2022-08-25T04:42:27;4.05;;;1.98;;
38427;SDS011;24211;49.980;19.776;2022-08-25T04:44:55;4.15;;;1.95;;
38427;SDS011;24211;49.980;19.776;2022-08-25T04:47:22;4.63;;;2.00;;
38427;SDS011;24211;49.980;19.776;2022-08-25T04:49:53;2.83;;;1.60;;
38427;SDS011;24211;49.980;19.776;2022-08-25T04:52:20;5.15;;;1.95;;
38427;SDS011;24211;49.980;19.776;2022-08-25T04:54:48;5.88;;;2.20;;
38427;SDS011;24211;49.980;19.776;2022-08-25T04:57:15;4.22;;;2.03;;
38427;SDS011;24211;49.980;19.776;2022-08-25T04:59:42;4.80;;;2.10;;
38427;SDS011;24211;49.980;19.776;2022-08-25T05:02:09;3.67;;;1.90;;
38427;SDS011;24211;49.980;19.776;2022-08-25T05:04:36;4.45;;;2.10;;
38427;SDS011;24211;49.980;19.776;2022-08-25T05:07:04;4.60;;;2.10;;
38427;SDS011;24211;49.980;19.776;2022-08-25T05:09:33;5.00;;;2.40;;
38427;SDS011;24211;49.980;19.776;2022-08-25T05:12:00;3.85;;;2.00;;
38427;SDS011;24211;49.980;19.776;2022-08-25T05:14:30;3.58;;;1.95;;
38427;SDS011;24211;49.980;19.776;2022-08-25T05:16:58;3.30;;;1.95;;
38427;SDS011;24211;49.980;19.776;2022-08-25T05:19:30;4.18;;;1.88;;
38427;SDS011;24211;49.980;19.776;2022-08-25T05:21:57;3.95;;;1.83;;
38427;SDS011;24211;49.980;19.776;2022-08-25T05:24:25;3.88;;;2.00;;
38427;SDS011;24211;49.980;19.776;2022-08-25T05:26:53;5.43;;;2.10;;
38427;SDS011;24211;49.980;19.776;2022-08-25T05:29:21;4.07;;;1.80;;
38427;SDS011;24211;49.980;19.776;2022-08-25T05:31:49;3.65;;;1.90;;
38427;SDS011;24211;49.980;19.776;2022-08-25T05:34:17;3.45;;;1.75;;
38427;SDS011;24211;49.980;19.776;2022-08-25T05:36:46;4.47;;;2.33;;
38427;SDS011;24211;49.980;19.776;2022-08-25T05:39:14;4.43;;;2.40;;
38427;SDS011;24211;49.980;19.776;2022-08-25T05:41:41;4.47;;;2.40;;
38427;SDS011;24211;49.980;19.776;2022-08-25T05:44:09;4.70;;;2.42;;
38427;SDS011;24211;49.980;19.776;2022-08-25T05:46:38;5.15;;;3.00;;
38427;SDS011;24211;49.980;19.776;2022-08-25T05:49:05;4.05;;;2.33;;
38427;SDS011;24211;49.980;19.776;2022-08-25T05:51:33;4.55;;;2.40;;
38427;SDS011;24211;49.980;19.776;2022-08-25T05:54:04;5.15;;;2.60;;
38427;SDS011;24211;49.980;19.776;2022-08-25T05:56:34;4.30;;;2.13;;
38427;SDS011;24211;49.980;19.776;2022-08-25T05:59:01;4.65;;;2.30;;
38427;SDS011;24211;49.980;19.776;2022-08-25T06:01:35;3.78;;;2.40;;
38427;SDS011;24211;49.980;19.776;2022-08-25T06:04:21;4.28;;;2.40;;
38427;SDS011;24211;49.980;19.776;2022-08-25T06:06:50;4.05;;;2.40;;
38427;SDS011;24211;49.980;19.776;2022-08-25T06:09:20;4.25;;;2.13;;
38427;SDS011;24211;49.980;19.776;2022-08-25T06:11:48;3.95;;;2.08;;
38427;SDS011;24211;49.980;19.776;2022-08-25T06:16:49;4.03;;;2.05;;
38427;SDS011;24211;49.980;19.776;2022-08-25T06:19:17;4.57;;;2.00;;
38427;SDS011;24211;49.980;19.776;2022-08-25T06:21:44;4.00;;;2.30;;
38427;SDS011;24211;49.980;19.776;2022-08-25T06:24:12;3.35;;;2.10;;
38427;SDS011;24211;49.980;19.776;2022-08-25T06:26:41;4.05;;;2.00;;
38427;SDS011;24211;49.980;19.776;2022-08-25T06:29:09;4.07;;;2.22;;
38427;SDS011;24211;49.980;19.776;2022-08-25T06:31:40;4.18;;;2.13;;
38427;SDS011;24211;49.980;19.776;2022-08-25T06:34:08;3.50;;;2.03;;
38427;SDS011;24211;49.980;19.776;2022-08-25T06:36:37;3.78;;;2.03;;
38427;SDS011;24211;49.980;19.776;2022-08-25T06:39:05;3.83;;;2.00;;
38427;SDS011;24211;49.980;19.776;2022-08-25T06:41:35;5.03;;;2.90;;
38427;SDS011;24211;49.980;19.776;2022-08-25T06:44:03;5.57;;;2.97;;
38427;SDS011;24211;49.980;19.776;2022-08-25T06:46:32;4.90;;;2.55;;
38427;SDS011;24211;49.980;19.776;2022-08-25T06:49:03;5.63;;;2.80;;
38427;SDS011;24211;49.980;19.776;2022-08-25T06:51:32;6.50;;;3.40;;
38427;SDS011;24211;49.980;19.776;2022-08-25T06:54:02;6.15;;;2.88;;
38427;SDS011;24211;49.980;19.776;2022-08-25T06:56:32;5.93;;;2.88;;
38427;SDS011;24211;49.980;19.776;2022-08-25T06:59:03;5.70;;;2.50;;
38427;SDS011;24211;49.980;19.776;2022-08-25T07:01:32;5.82;;;3.15;;
38427;SDS011;24211;49.980;19.776;2022-08-25T07:04:01;9.52;;;3.20;;
38427;SDS011;24211;49.980;19.776;2022-08-25T07:06:38;6.57;;;3.15;;
38427;SDS011;24211;49.980;19.776;2022-08-25T07:09:06;7.40;;;2.92;;
38427;SDS011;24211;49.980;19.776;2022-08-25T07:11:35;7.10;;;2.50;;
38427;SDS011;24211;49.980;19.776;2022-08-25T07:14:04;8.45;;;2.78;;
38427;SDS011;24211;49.980;19.776;2022-08-25T07:16:35;10.30;;;4.10;;
38427;SDS011;24211;49.980;19.776;2022-08-25T07:19:07;6.13;;;3.05;;
38427;SDS011;24211;49.980;19.776;2022-08-25T07:21:41;7.50;;;3.42;;
38427;SDS011;24211;49.980;19.776;2022-08-25T07:24:11;7.07;;;3.10;;
38427;SDS011;24211;49.980;19.776;2022-08-25T07:26:40;7.72;;;2.80;;
38427;SDS011;24211;49.980;19.776;2022-08-25T07:29:13;7.63;;;2.90;;
38427;SDS011;24211;49.980;19.776;2022-08-25T07:31:58;5.55;;;2.47;;
38427;SDS011;24211;49.980;19.776;2022-08-25T07:34:28;8.77;;;2.78;;
38427;SDS011;24211;49.980;19.776;2022-08-25T07:37:18;10.43;;;2.75;;
38427;SDS011;24211;49.980;19.776;2022-08-25T07:40:09;5.97;;;2.42;;
38427;SDS011;24211;49.980;19.776;2022-08-25T07:42:43;6.50;;;2.47;;
38427;SDS011;24211;49.980;19.776;2022-08-25T07:45:11;6.72;;;2.40;;
38427;SDS011;24211;49.980;19.776;2022-08-25T07:47:42;4.85;;;2.42;;
38427;SDS011;24211;49.980;19.776;2022-08-25T07:50:10;5.75;;;2.47;;
38427;SDS011;24211;49.980;19.776;2022-08-25T07:52:40;5.65;;;2.45;;
38427;SDS011;24211;49.980;19.776;2022-08-25T07:55:08;10.48;;;2.78;;
38427;SDS011;24211;49.980;19.776;2022-08-25T07:57:39;7.03;;;2.63;;
38427;SDS011;24211;49.980;19.776;2022-08-25T08:00:08;8.68;;;2.78;;
38427;SDS011;24211;49.980;19.776;2022-08-25T08:02:40;7.78;;;2.80;;
38427;SDS011;24211;49.980;19.776;2022-08-25T08:05:09;7.38;;;2.70;;
38427;SDS011;24211;49.980;19.776;2022-08-25T08:07:38;11.80;;;3.53;;
38427;SDS011;24211;49.980;19.776;2022-08-25T08:10:11;7.65;;;2.60;;
38427;SDS011;24211;49.980;19.776;2022-08-25T08:13:02;10.85;;;3.38;;
38427;SDS011;24211;49.980;19.776;2022-08-25T08:15:33;7.10;;;3.13;;
38427;SDS011;24211;49.980;19.776;2022-08-25T08:18:02;8.55;;;3.10;;
38427;SDS011;24211;49.980;19.776;2022-08-25T08:20:33;8.20;;;2.50;;
38427;SDS011;24211;49.980;19.776;2022-08-25T08:23:09;8.95;;;2.72;;
38427;SDS011;24211;49.980;19.776;2022-08-25T08:25:37;8.50;;;3.05;;
38427;SDS011;24211;49.980;19.776;2022-08-25T08:28:04;8.40;;;3.05;;
38427;SDS011;24211;49.980;19.776;2022-08-25T08:30:34;11.50;;;3.00;;
38427;SDS011;24211;49.980;19.776;2022-08-25T08:33:03;12.43;;;3.17;;
38427;SDS011;24211;49.980;19.776;2022-08-25T08:35:40;8.10;;;2.88;;
38427;SDS011;24211;49.980;19.776;2022-08-25T08:38:08;9.40;;;2.90;;
38427;SDS011;24211;49.980;19.776;2022-08-25T08:40:48;10.88;;;2.83;;
38427;SDS011;24211;49.980;19.776;2022-08-25T08:43:57;9.98;;;2.90;;
38427;SDS011;24211;49.980;19.776;2022-08-25T08:46:48;8.15;;;2.65;;
38427;SDS011;24211;49.980;19.776;2022-08-25T08:49:51;9.52;;;2.80;;
38427;SDS011;24211;49.980;19.776;2022-08-25T08:52:55;12.77;;;2.80;;
38427;SDS011;24211;49.980;19.776;2022-08-25T09:00:54;9.23;;;2.72;;
38427;SDS011;24211;49.980;19.776;2022-08-25T09:03:43;10.10;;;2.97;;
38427;SDS011;24211;49.980;19.776;2022-08-25T09:06:32;9.45;;;2.80;;
38427;SDS011;24211;49.980;19.776;2022-08-25T09:09:13;7.55;;;2.60;;
38427;SDS011;24211;49.980;19.776;2022-08-25T09:12:10;14.75;;;3.28;;
38427;SDS011;24211;49.980;19.776;2022-08-25T09:18:30;9.05;;;2.95;;
38427;SDS011;24211;49.980;19.776;2022-08-25T09:21:28;12.23;;;3.25;;
38427;SDS011;24211;49.980;19.776;2022-08-25T09:30:24;11.55;;;3.00;;
38427;SDS011;24211;49.980;19.776;2022-08-25T09:33:04;9.82;;;2.65;;
38427;SDS011;24211;49.980;19.776;2022-08-25T09:35:34;9.68;;;2.85;;
38427;SDS011;24211;49.980;19.776;2022-08-25T09:38:06;10.88;;;3.08;;
38427;SDS011;24211;49.980;19.776;2022-08-25T09:40:42;9.63;;;3.10;;
38427;SDS011;24211;49.980;19.776;2022-08-25T09:43:18;11.02;;;3.22;;
38427;SDS011;24211;49.980;19.776;2022-08-25T09:46:01;9.93;;;2.55;;
38427;SDS011;24211;49.980;19.776;2022-08-25T09:48:50;9.85;;;2.90;;
38427;SDS011;24211;49.980;19.776;2022-08-25T09:51:31;10.93;;;3.13;;
38427;SDS011;24211;49.980;19.776;2022-08-25T09:56:55;11.55;;;2.90;;
38427;SDS011;24211;49.980;19.776;2022-08-25T09:59:28;11.13;;;2.90;;
38427;SDS011;24211;49.980;19.776;2022-08-25T10:02:03;9.73;;;3.05;;
38427;SDS011;24211;49.980;19.776;2022-08-25T10:04:49;7.05;;;2.80;;
38427;SDS011;24211;49.980;19.776;2022-08-25T10:07:20;10.48;;;2.92;;
38427;SDS011;24211;49.980;19.776;2022-08-25T10:10:03;11.20;;;3.22;;
38427;SDS011;24211;49.980;19.776;2022-08-25T10:12:45;9.65;;;2.70;;
38427;SDS011;24211;49.980;19.776;2022-08-25T10:15:18;9.40;;;3.00;;
38427;SDS011;24211;49.980;19.776;2022-08-25T10:18:18;7.68;;;2.78;;
38427;SDS011;24211;49.980;19.776;2022-08-25T10:23:34;12.77;;;3.20;;
38427;SDS011;24211;49.980;19.776;2022-08-25T10:26:22;8.88;;;2.95;;
38427;SDS011;24211;49.980;19.776;2022-08-25T10:35:05;10.43;;;3.28;;
38427;SDS011;24211;49.980;19.776;2022-08-25T10:37:50;10.30;;;3.67;;
38427;SDS011;24211;49.980;19.776;2022-08-25T10:41:01;12.48;;;3.45;;
38427;SDS011;24211;49.980;19.776;2022-08-25T10:47:16;13.40;;;3.83;;
38427;SDS011;24211;49.980;19.776;2022-08-25T10:52:51;10.38;;;3.75;;
38427;SDS011;24211;49.980;19.776;2022-08-25T11:08:30;11.32;;;3.65;;
38427;SDS011;24211;49.980;19.776;2022-08-25T11:16:45;9.68;;;3.97;;
38427;SDS011;24211;49.980;19.776;2022-08-25T11:19:25;8.63;;;3.70;;
38427;SDS011;24211;49.980;19.776;2022-08-25T11:22:09;8.27;;;3.40;;
38427;SDS011;24211;49.980;19.776;2022-08-25T11:25:08;12.00;;;3.90;;
38427;SDS011;24211;49.980;19.776;2022-08-25T11:30:36;9.98;;;3.78;;
38427;SDS011;24211;49.980;19.776;2022-08-25T11:33:06;11.90;;;3.72;;
38427;SDS011;24211;49.980;19.776;2022-08-25T11:48:09;10.93;;;3.53;;
38427;SDS011;24211;49.980;19.776;2022-08-25T11:50:53;13.98;;;4.53;;
38427;SDS011;24211;49.980;19.776;2022-08-25T11:53:37;13.57;;;3.92;;
38427;SDS011;24211;49.980;19.776;2022-08-25T11:56:11;15.50;;;4.65;;
38427;SDS011;24211;49.980;19.776;2022-08-25T11:59:05;8.80;;;3.30;;
38427;SDS011;24211;49.980;19.776;2022-08-25T12:07:16;11.30;;;3.70;;
38427;SDS011;24211;49.980;19.776;2022-08-25T12:23:28;16.00;;;4.10;;
38427;SDS011;24211;49.980;19.776;2022-08-25T12:31:51;10.73;;;3.30;;
38427;SDS011;24211;49.980;19.776;2022-08-25T12:35:10;11.05;;;3.42;;
38427;SDS011;24211;49.980;19.776;2022-08-25T12:38:08;23.48;;;4.50;;
38427;SDS011;24211;49.980;19.776;2022-08-25T12:45:46;17.25;;;4.00;;
38427;SDS011;24211;49.980;19.776;2022-08-25T12:51:05;12.82;;;3.88;;
38427;SDS011;24211;49.980;19.776;2022-08-25T12:54:21;16.35;;;3.60;;
38427;SDS011;24211;49.980;19.776;2022-08-25T13:00:53;11.38;;;3.33;;
38427;SDS011;24211;49.980;19.776;2022-08-25T13:06:44;17.02;;;3.75;;
38427;SDS011;24211;49.980;19.776;2022-08-25T13:15:42;12.30;;;3.38;;
38427;SDS011;24211;49.980;19.776;2022-08-25T13:18:48;15.60;;;4.03;;
38427;SDS011;24211;49.980;19.776;2022-08-25T13:21:22;13.60;;;3.90;;
38427;SDS011;24211;49.980;19.776;2022-08-25T13:24:04;8.57;;;3.65;;
38427;SDS011;24211;49.980;19.776;2022-08-25T13:26:45;10.90;;;3.75;;
38427;SDS011;24211;49.980;19.776;2022-08-25T13:29:20;10.05;;;3.42;;
38427;SDS011;24211;49.980;19.776;2022-08-25T13:32:03;19.08;;;4.35;;
38427;SDS011;24211;49.980;19.776;2022-08-25T13:34:40;18.08;;;4.35;;
38427;SDS011;24211;49.980;19.776;2022-08-25T13:37:16;11.30;;;3.78;;
38427;SDS011;24211;49.980;19.776;2022-08-25T13:40:13;13.18;;;4.07;;
38427;SDS011;24211;49.980;19.776;2022-08-25T13:42:59;15.98;;;4.00;;
38427;SDS011;24211;49.980;19.776;2022-08-25T13:45:35;21.27;;;4.10;;
38427;SDS011;24211;49.980;19.776;2022-08-25T13:48:13;16.40;;;4.25;;
38427;SDS011;24211;49.980;19.776;2022-08-25T13:51:15;9.27;;;3.33;;
38427;SDS011;24211;49.980;19.776;2022-08-25T13:53:58;14.63;;;3.90;;
38427;SDS011;24211;49.980;19.776;2022-08-25T13:56:36;12.30;;;3.38;;
38427;SDS011;24211;49.980;19.776;2022-08-25T13:59:23;15.32;;;3.25;;
38427;SDS011;24211;49.980;19.776;2022-08-25T14:01:58;18.15;;;3.78;;
38427;SDS011;24211;49.980;19.776;2022-08-25T14:09:51;10.73;;;3.40;;
38427;SDS011;24211;49.980;19.776;2022-08-25T14:17:48;13.60;;;3.65;;
38427;SDS011;24211;49.980;19.776;2022-08-25T14:20:29;15.15;;;4.28;;
38427;SDS011;24211;49.980;19.776;2022-08-25T14:23:05;16.42;;;4.00;;
38427;SDS011;24211;49.980;19.776;2022-08-25T14:25:44;16.13;;;3.78;;
38427;SDS011;24211;49.980;19.776;2022-08-25T14:28:17;15.47;;;3.70;;
38427;SDS011;24211;49.980;19.776;2022-08-25T14:30:49;15.85;;;3.95;;
38427;SDS011;24211;49.980;19.776;2022-08-25T14:33:48;15.23;;;3.20;;
38427;SDS011;24211;49.980;19.776;2022-08-25T14:36:28;11.82;;;3.20;;
38427;SDS011;24211;49.980;19.776;2022-08-25T14:38:58;14.23;;;3.80;;
38427;SDS011;24211;49.980;19.776;2022-08-25T14:41:35;19.77;;;4.10;;
38427;SDS011;24211;49.980;19.776;2022-08-25T14:44:07;17.35;;;3.63;;
38427;SDS011;24211;49.980;19.776;2022-08-25T14:46:36;16.15;;;4.10;;
38427;SDS011;24211;49.980;19.776;2022-08-25T14:49:11;15.15;;;3.63;;
38427;SDS011;24211;49.980;19.776;2022-08-25T14:51:50;12.13;;;3.50;;
38427;SDS011;24211;49.980;19.776;2022-08-25T14:54:18;11.73;;;3.85;;
38427;SDS011;24211;49.980;19.776;2022-08-25T14:56:52;16.95;;;4.25;;
38427;SDS011;24211;49.980;19.776;2022-08-25T14:59:21;12.95;;;3.92;;
38427;SDS011;24211;49.980;19.776;2022-08-25T15:01:48;24.60;;;4.30;;
38427;SDS011;24211;49.980;19.776;2022-08-25T15:04:16;24.02;;;4.63;;
38427;SDS011;24211;49.980;19.776;2022-08-25T15:06:50;12.30;;;3.30;;
38427;SDS011;24211;49.980;19.776;2022-08-25T15:09:24;19.98;;;4.10;;
38427;SDS011;24211;49.980;19.776;2022-08-25T15:11:59;12.88;;;3.85;;
38427;SDS011;24211;49.980;19.776;2022-08-25T15:14:26;20.95;;;4.10;;
38427;SDS011;24211;49.980;19.776;2022-08-25T15:16:58;21.30;;;4.32;;
38427;SDS011;24211;49.980;19.776;2022-08-25T15:19:33;19.83;;;4.32;;
38427;SDS011;24211;49.980;19.776;2022-08-25T15:22:01;16.40;;;3.90;;
38427;SDS011;24211;49.980;19.776;2022-08-25T15:24:28;19.42;;;4.45;;
38427;SDS011;24211;49.980;19.776;2022-08-25T15:27:02;17.45;;;4.80;;
38427;SDS011;24211;49.980;19.776;2022-08-25T15:29:31;17.65;;;4.13;;
38427;SDS011;24211;49.980;19.776;2022-08-25T15:32:02;19.00;;;4.38;;
38427;SDS011;24211;49.980;19.776;2022-08-25T15:34:32;16.75;;;4.15;;
38427;SDS011;24211;49.980;19.776;2022-08-25T15:37:09;21.55;;;4.60;;
38427;SDS011;24211;49.980;19.776;2022-08-25T15:39:41;20.52;;;4.45;;
38427;SDS011;24211;49.980;19.776;2022-08-25T15:42:11;17.23;;;4.50;;
38427;SDS011;24211;49.980;19.776;2022-08-25T15:44:39;19.90;;;5.35;;
38427;SDS011;24211;49.980;19.776;2022-08-25T15:47:19;19.95;;;4.60;;
38427;SDS011;24211;49.980;19.776;2022-08-25T15:49:49;22.25;;;4.47;;
38427;SDS011;24211;49.980;19.776;2022-08-25T15:52:29;23.75;;;4.70;;
38427;SDS011;24211;49.980;19.776;2022-08-25T15:55:11;13.57;;;4.47;;
38427;SDS011;24211;49.980;19.776;2022-08-25T15:57:41;14.68;;;4.47;;
38427;SDS011;24211;49.980;19.776;2022-08-25T16:00:10;15.95;;;4.82;;
38427;SDS011;24211;49.980;19.776;2022-08-25T16:02:42;19.98;;;4.85;;
38427;SDS011;24211;49.980;19.776;2022-08-25T16:05:11;20.48;;;5.60;;
38427;SDS011;24211;49.980;19.776;2022-08-25T16:07:42;22.65;;;5.15;;
38427;SDS011;24211;49.980;19.776;2022-08-25T16:10:17;13.70;;;4.60;;
38427;SDS011;24211;49.980;19.776;2022-08-25T16:12:45;14.60;;;4.28;;
38427;SDS011;24211;49.980;19.776;2022-08-25T16:15:13;15.80;;;4.43;;
38427;SDS011;24211;49.980;19.776;2022-08-25T16:17:41;13.02;;;3.85;;
38427;SDS011;24211;49.980;19.776;2022-08-25T16:20:14;17.33;;;4.30;;
38427;SDS011;24211;49.980;19.776;2022-08-25T16:22:43;13.50;;;3.80;;
38427;SDS011;24211;49.980;19.776;2022-08-25T16:25:10;12.07;;;3.97;;
38427;SDS011;24211;49.980;19.776;2022-08-25T16:27:39;13.65;;;4.03;;
38427;SDS011;24211;49.980;19.776;2022-08-25T16:30:07;8.73;;;3.72;;
38427;SDS011;24211;49.980;19.776;2022-08-25T16:32:43;13.05;;;3.83;;
38427;SDS011;24211;49.980;19.776;2022-08-25T16:35:12;9.80;;;3.42;;
38427;SDS011;24211;49.980;19.776;2022-08-25T16:37:40;10.52;;;3.65;;
38427;SDS011;24211;49.980;19.776;2022-08-25T16:40:08;9.00;;;3.65;;
38427;SDS011;24211;49.980;19.776;2022-08-25T16:42:41;11.93;;;3.80;;
38427;SDS011;24211;49.980;19.776;2022-08-25T16:45:10;11.30;;;3.70;;
38427;SDS011;24211;49.980;19.776;2022-08-25T16:47:37;10.82;;;3.50;;
38427;SDS011;24211;49.980;19.776;2022-08-25T16:50:08;12.00;;;3.90;;
38427;SDS011;24211;49.980;19.776;2022-08-25T16:52:37;9.45;;;3.65;;
38427;SDS011;24211;49.980;19.776;2022-08-25T16:55:25;11.02;;;3.30;;
38427;SDS011;24211;49.980;19.776;2022-08-25T16:58:04;10.40;;;3.25;;
38427;SDS011;24211;49.980;19.776;2022-08-25T17:00:34;11.65;;;3.03;;
38427;SDS011;24211;49.980;19.776;2022-08-25T17:03:05;8.23;;;3.63;;
38427;SDS011;24211;49.980;19.776;2022-08-25T17:05:34;10.07;;;3.22;;
38427;SDS011;24211;49.980;19.776;2022-08-25T17:08:07;10.60;;;3.55;;
38427;SDS011;24211;49.980;19.776;2022-08-25T17:10:54;8.80;;;3.55;;
38427;SDS011;24211;49.980;19.776;2022-08-25T17:13:35;11.38;;;3.78;;
38427;SDS011;24211;49.980;19.776;2022-08-25T17:16:10;11.05;;;3.72;;
38427;SDS011;24211;49.980;19.776;2022-08-25T17:18:40;9.48;;;4.05;;
38427;SDS011;24211;49.980;19.776;2022-08-25T17:21:14;9.27;;;3.92;;
38427;SDS011;24211;49.980;19.776;2022-08-25T17:23:50;8.20;;;3.63;;